sensor_id;sensor_type;location;lat;lon;timestamp;P1;durP1;ratioP1;P2;durP2;ratioP2
6997;SDS011;3539;47.982;12.238;2022-10-16T00:00:31;2.60;;;2.40;;
6997;SDS011;3539;47.982;12.238;2022-10-16T00:02:58;3.17;;;2.90;;
6997;SDS011;3539;47.982;12.238;2022-10-16T00:05:24;4.00;;;3.60;;
6997;SDS011;3539;47.982;12.238;2022-10-16T00:07:51;2.87;;;2.67;;
6997;SDS011;3539;47.982;12.238;2022-10-16T00:10:18;3.30;;;3.00;;
6997;SDS011;3539;47.982;12.238;2022-10-16T00:12:44;2.83;;;2.63;;
6997;SDS011;3539;47.982;12.238;2022-10-16T00:15:11;2.67;;;2.47;;
6997;SDS011;3539;47.982;12.238;2022-10-16T00:17:40;3.37;;;3.07;;
6997;SDS011;3539;47.982;12.238;2022-10-16T00:20:07;3.40;;;3.10;;
6997;SDS011;3539;47.982;12.238;2022-10-16T00:22:34;4.40;;;4.00;;
6997;SDS011;3539;47.982;12.238;2022-10-16T00:25:01;3.53;;;3.23;;
6997;SDS011;3539;47.982;12.238;2022-10-16T00:27:27;6.23;;;4.30;;
6997;SDS011;3539;47.982;12.238;2022-10-16T00:29:54;7.27;;;4.10;;
6997;SDS011;3539;47.982;12.238;2022-10-16T00:32:21;3.27;;;2.97;;
6997;SDS011;3539;47.982;12.238;2022-10-16T00:34:49;3.90;;;3.60;;
6997;SDS011;3539;47.982;12.238;2022-10-16T00:37:16;3.37;;;3.10;;
6997;SDS011;3539;47.982;12.238;2022-10-16T00:39:42;3.10;;;2.90;;
6997;SDS011;3539;47.982;12.238;2022-10-16T00:42:09;5.13;;;4.67;;
6997;SDS011;3539;47.982;12.238;2022-10-16T00:44:43;4.20;;;3.80;;
6997;SDS011;3539;47.982;12.238;2022-10-16T00:47:13;3.07;;;2.80;;
6997;SDS011;3539;47.982;12.238;2022-10-16T00:49:42;4.50;;;3.47;;
6997;SDS011;3539;47.982;12.238;2022-10-16T00:52:10;3.67;;;3.37;;
6997;SDS011;3539;47.982;12.238;2022-10-16T00:54:37;3.50;;;3.20;;
6997;SDS011;3539;47.982;12.238;2022-10-16T00:57:05;3.20;;;2.90;;
6997;SDS011;3539;47.982;12.238;2022-10-16T00:59:33;2.50;;;2.30;;
6997;SDS011;3539;47.982;12.238;2022-10-16T01:02:02;3.57;;;3.27;;
6997;SDS011;3539;47.982;12.238;2022-10-16T01:04:30;3.87;;;3.57;;
6997;SDS011;3539;47.982;12.238;2022-10-16T01:07:00;4.57;;;3.87;;
6997;SDS011;3539;47.982;12.238;2022-10-16T01:09:32;3.40;;;3.10;;
6997;SDS011;3539;47.982;12.238;2022-10-16T01:12:06;2.40;;;2.20;;
6997;SDS011;3539;47.982;12.238;2022-10-16T01:14:38;2.33;;;2.13;;
6997;SDS011;3539;47.982;12.238;2022-10-16T01:17:09;2.80;;;2.60;;
6997;SDS011;3539;47.982;12.238;2022-10-16T01:19:41;3.43;;;3.13;;
6997;SDS011;3539;47.982;12.238;2022-10-16T01:22:16;2.20;;;2.10;;
6997;SDS011;3539;47.982;12.238;2022-10-16T01:24:45;2.60;;;2.40;;
6997;SDS011;3539;47.982;12.238;2022-10-16T01:27:14;2.00;;;1.90;;
6997;SDS011;3539;47.982;12.238;2022-10-16T01:29:44;2.40;;;2.23;;
6997;SDS011;3539;47.982;12.238;2022-10-16T01:32:16;2.00;;;1.90;;
6997;SDS011;3539;47.982;12.238;2022-10-16T01:34:48;2.10;;;1.90;;
6997;SDS011;3539;47.982;12.238;2022-10-16T01:37:20;2.07;;;1.97;;
6997;SDS011;3539;47.982;12.238;2022-10-16T01:39:51;2.13;;;1.93;;
6997;SDS011;3539;47.982;12.238;2022-10-16T01:42:24;3.50;;;2.30;;
6997;SDS011;3539;47.982;12.238;2022-10-16T01:44:54;2.50;;;2.30;;
6997;SDS011;3539;47.982;12.238;2022-10-16T01:47:21;2.60;;;2.40;;
6997;SDS011;3539;47.982;12.238;2022-10-16T01:49:50;2.50;;;2.30;;
6997;SDS011;3539;47.982;12.238;2022-10-16T01:52:17;2.50;;;2.30;;
6997;SDS011;3539;47.982;12.238;2022-10-16T01:54:47;2.57;;;2.37;;
6997;SDS011;3539;47.982;12.238;2022-10-16T01:57:15;2.40;;;2.20;;
6997;SDS011;3539;47.982;12.238;2022-10-16T01:59:46;2.17;;;2.03;;
6997;SDS011;3539;47.982;12.238;2022-10-16T02:02:17;2.53;;;2.20;;
6997;SDS011;3539;47.982;12.238;2022-10-16T02:04:45;3.83;;;2.20;;
6997;SDS011;3539;47.982;12.238;2022-10-16T02:07:14;2.20;;;2.10;;
6997;SDS011;3539;47.982;12.238;2022-10-16T02:09:41;1.90;;;1.80;;
6997;SDS011;3539;47.982;12.238;2022-10-16T02:12:10;3.23;;;1.97;;
6997;SDS011;3539;47.982;12.238;2022-10-16T02:14:39;2.40;;;2.20;;
6997;SDS011;3539;47.982;12.238;2022-10-16T02:17:11;3.00;;;2.70;;
6997;SDS011;3539;47.982;12.238;2022-10-16T02:19:39;3.00;;;2.70;;
6997;SDS011;3539;47.982;12.238;2022-10-16T02:22:06;2.50;;;2.33;;
6997;SDS011;3539;47.982;12.238;2022-10-16T02:24:35;3.63;;;2.83;;
6997;SDS011;3539;47.982;12.238;2022-10-16T02:27:06;2.20;;;2.10;;
6997;SDS011;3539;47.982;12.238;2022-10-16T02:29:37;3.40;;;2.20;;
6997;SDS011;3539;47.982;12.238;2022-10-16T02:32:05;2.30;;;2.10;;
6997;SDS011;3539;47.982;12.238;2022-10-16T02:34:35;2.67;;;2.40;;
6997;SDS011;3539;47.982;12.238;2022-10-16T02:37:03;2.50;;;2.20;;
6997;SDS011;3539;47.982;12.238;2022-10-16T02:39:31;4.07;;;3.00;;
6997;SDS011;3539;47.982;12.238;2022-10-16T02:41:59;3.07;;;2.83;;
6997;SDS011;3539;47.982;12.238;2022-10-16T02:44:25;2.33;;;2.13;;
6997;SDS011;3539;47.982;12.238;2022-10-16T02:46:52;3.03;;;2.73;;
6997;SDS011;3539;47.982;12.238;2022-10-16T02:49:19;3.10;;;2.80;;
6997;SDS011;3539;47.982;12.238;2022-10-16T02:51:47;3.80;;;2.40;;
6997;SDS011;3539;47.982;12.238;2022-10-16T02:54:13;2.50;;;2.30;;
6997;SDS011;3539;47.982;12.238;2022-10-16T02:56:40;2.30;;;2.10;;
6997;SDS011;3539;47.982;12.238;2022-10-16T02:59:07;2.50;;;2.30;;
6997;SDS011;3539;47.982;12.238;2022-10-16T03:01:33;3.33;;;2.00;;
6997;SDS011;3539;47.982;12.238;2022-10-16T03:04:00;2.10;;;1.90;;
6997;SDS011;3539;47.982;12.238;2022-10-16T03:06:27;1.70;;;1.60;;
6997;SDS011;3539;47.982;12.238;2022-10-16T03:08:55;2.07;;;1.87;;
6997;SDS011;3539;47.982;12.238;2022-10-16T03:11:21;3.30;;;1.60;;
6997;SDS011;3539;47.982;12.238;2022-10-16T03:13:48;1.80;;;1.60;;
6997;SDS011;3539;47.982;12.238;2022-10-16T03:16:15;1.50;;;1.40;;
6997;SDS011;3539;47.982;12.238;2022-10-16T03:18:42;1.70;;;1.60;;
6997;SDS011;3539;47.982;12.238;2022-10-16T03:21:08;1.70;;;1.60;;
6997;SDS011;3539;47.982;12.238;2022-10-16T03:23:35;1.50;;;1.40;;
6997;SDS011;3539;47.982;12.238;2022-10-16T03:26:03;4.37;;;1.70;;
6997;SDS011;3539;47.982;12.238;2022-10-16T03:28:30;2.17;;;1.97;;
6997;SDS011;3539;47.982;12.238;2022-10-16T03:30:56;2.07;;;1.87;;
6997;SDS011;3539;47.982;12.238;2022-10-16T03:33:23;2.23;;;2.00;;
6997;SDS011;3539;47.982;12.238;2022-10-16T03:35:53;1.80;;;1.70;;
6997;SDS011;3539;47.982;12.238;2022-10-16T03:38:20;1.80;;;1.70;;
6997;SDS011;3539;47.982;12.238;2022-10-16T03:40:47;1.67;;;1.57;;
6997;SDS011;3539;47.982;12.238;2022-10-16T03:43:15;2.07;;;1.90;;
6997;SDS011;3539;47.982;12.238;2022-10-16T03:45:42;1.73;;;1.60;;
6997;SDS011;3539;47.982;12.238;2022-10-16T03:48:09;3.80;;;1.93;;
6997;SDS011;3539;47.982;12.238;2022-10-16T03:50:35;1.80;;;1.70;;
6997;SDS011;3539;47.982;12.238;2022-10-16T03:53:02;1.73;;;1.60;;
6997;SDS011;3539;47.982;12.238;2022-10-16T03:55:29;2.20;;;2.00;;
6997;SDS011;3539;47.982;12.238;2022-10-16T03:57:56;3.03;;;1.80;;
6997;SDS011;3539;47.982;12.238;2022-10-16T04:00:24;2.47;;;1.87;;
6997;SDS011;3539;47.982;12.238;2022-10-16T04:02:51;2.20;;;2.10;;
6997;SDS011;3539;47.982;12.238;2022-10-16T04:05:18;3.17;;;2.87;;
6997;SDS011;3539;47.982;12.238;2022-10-16T04:07:44;3.97;;;2.93;;
6997;SDS011;3539;47.982;12.238;2022-10-16T04:10:11;2.27;;;2.07;;
6997;SDS011;3539;47.982;12.238;2022-10-16T04:12:38;2.83;;;2.50;;
6997;SDS011;3539;47.982;12.238;2022-10-16T04:15:04;2.27;;;2.07;;
6997;SDS011;3539;47.982;12.238;2022-10-16T04:17:33;1.90;;;1.80;;
6997;SDS011;3539;47.982;12.238;2022-10-16T04:20:00;4.27;;;1.90;;
6997;SDS011;3539;47.982;12.238;2022-10-16T04:22:26;3.07;;;1.80;;
6997;SDS011;3539;47.982;12.238;2022-10-16T04:24:53;2.80;;;1.70;;
6997;SDS011;3539;47.982;12.238;2022-10-16T04:27:20;2.87;;;1.80;;
6997;SDS011;3539;47.982;12.238;2022-10-16T04:29:46;2.07;;;1.60;;
6997;SDS011;3539;47.982;12.238;2022-10-16T04:32:13;1.60;;;1.50;;
6997;SDS011;3539;47.982;12.238;2022-10-16T04:34:42;2.50;;;1.60;;
6997;SDS011;3539;47.982;12.238;2022-10-16T04:37:08;2.27;;;1.50;;
6997;SDS011;3539;47.982;12.238;2022-10-16T04:39:35;2.10;;;1.90;;
6997;SDS011;3539;47.982;12.238;2022-10-16T04:42:02;1.60;;;1.50;;
6997;SDS011;3539;47.982;12.238;2022-10-16T04:44:29;2.13;;;1.50;;
6997;SDS011;3539;47.982;12.238;2022-10-16T04:46:56;2.90;;;1.60;;
6997;SDS011;3539;47.982;12.238;2022-10-16T04:49:23;1.90;;;1.70;;
6997;SDS011;3539;47.982;12.238;2022-10-16T04:51:51;2.93;;;2.60;;
6997;SDS011;3539;47.982;12.238;2022-10-16T04:54:17;6.33;;;4.10;;
6997;SDS011;3539;47.982;12.238;2022-10-16T04:56:44;8.20;;;7.40;;
6997;SDS011;3539;47.982;12.238;2022-10-16T04:59:13;5.07;;;4.60;;
6997;SDS011;3539;47.982;12.238;2022-10-16T05:01:40;4.97;;;2.70;;
6997;SDS011;3539;47.982;12.238;2022-10-16T05:04:07;4.37;;;2.60;;
6997;SDS011;3539;47.982;12.238;2022-10-16T05:06:34;2.40;;;2.20;;
6997;SDS011;3539;47.982;12.238;2022-10-16T05:09:02;2.87;;;2.27;;
6997;SDS011;3539;47.982;12.238;2022-10-16T05:11:30;2.17;;;2.07;;
6997;SDS011;3539;47.982;12.238;2022-10-16T05:13:57;9.43;;;2.20;;
6997;SDS011;3539;47.982;12.238;2022-10-16T05:16:27;2.10;;;1.90;;
6997;SDS011;3539;47.982;12.238;2022-10-16T05:18:56;1.83;;;1.63;;
6997;SDS011;3539;47.982;12.238;2022-10-16T05:21:23;1.60;;;1.50;;
6997;SDS011;3539;47.982;12.238;2022-10-16T05:23:50;1.77;;;1.47;;
6997;SDS011;3539;47.982;12.238;2022-10-16T05:26:18;1.67;;;1.57;;
6997;SDS011;3539;47.982;12.238;2022-10-16T05:28:45;1.83;;;1.73;;
6997;SDS011;3539;47.982;12.238;2022-10-16T05:31:12;3.07;;;1.70;;
6997;SDS011;3539;47.982;12.238;2022-10-16T05:33:38;3.30;;;2.10;;
6997;SDS011;3539;47.982;12.238;2022-10-16T05:36:05;2.83;;;2.27;;
6997;SDS011;3539;47.982;12.238;2022-10-16T05:38:33;2.17;;;2.00;;
6997;SDS011;3539;47.982;12.238;2022-10-16T05:41:00;3.90;;;2.47;;
6997;SDS011;3539;47.982;12.238;2022-10-16T05:43:29;3.00;;;2.80;;
6997;SDS011;3539;47.982;12.238;2022-10-16T05:45:56;3.33;;;3.03;;
6997;SDS011;3539;47.982;12.238;2022-10-16T05:48:24;3.27;;;2.97;;
6997;SDS011;3539;47.982;12.238;2022-10-16T05:50:57;4.93;;;3.57;;
6997;SDS011;3539;47.982;12.238;2022-10-16T05:53:24;5.93;;;3.90;;
6997;SDS011;3539;47.982;12.238;2022-10-16T05:55:52;5.07;;;3.83;;
6997;SDS011;3539;47.982;12.238;2022-10-16T05:58:19;4.10;;;3.33;;
6997;SDS011;3539;47.982;12.238;2022-10-16T06:00:53;3.93;;;3.53;;
6997;SDS011;3539;47.982;12.238;2022-10-16T06:03:20;3.23;;;3.03;;
6997;SDS011;3539;47.982;12.238;2022-10-16T06:05:47;4.23;;;3.30;;
6997;SDS011;3539;47.982;12.238;2022-10-16T06:08:14;4.20;;;3.43;;
6997;SDS011;3539;47.982;12.238;2022-10-16T06:10:41;2.93;;;2.67;;
6997;SDS011;3539;47.982;12.238;2022-10-16T06:13:08;4.30;;;2.70;;
6997;SDS011;3539;47.982;12.238;2022-10-16T06:15:35;2.57;;;2.37;;
6997;SDS011;3539;47.982;12.238;2022-10-16T06:18:05;2.57;;;2.37;;
6997;SDS011;3539;47.982;12.238;2022-10-16T06:20:32;3.90;;;3.60;;
6997;SDS011;3539;47.982;12.238;2022-10-16T06:22:58;3.80;;;3.50;;
6997;SDS011;3539;47.982;12.238;2022-10-16T06:25:25;3.63;;;3.33;;
6997;SDS011;3539;47.982;12.238;2022-10-16T06:27:52;3.10;;;2.90;;
6997;SDS011;3539;47.982;12.238;2022-10-16T06:30:18;4.20;;;2.60;;
6997;SDS011;3539;47.982;12.238;2022-10-16T06:32:45;2.40;;;2.00;;
6997;SDS011;3539;47.982;12.238;2022-10-16T06:35:13;2.23;;;2.00;;
6997;SDS011;3539;47.982;12.238;2022-10-16T06:37:40;2.57;;;1.90;;
6997;SDS011;3539;47.982;12.238;2022-10-16T06:40:07;2.80;;;1.90;;
6997;SDS011;3539;47.982;12.238;2022-10-16T06:42:34;2.87;;;2.10;;
6997;SDS011;3539;47.982;12.238;2022-10-16T06:45:01;2.73;;;2.13;;
6997;SDS011;3539;47.982;12.238;2022-10-16T06:47:28;3.07;;;2.30;;
6997;SDS011;3539;47.982;12.238;2022-10-16T06:49:54;4.20;;;2.90;;
6997;SDS011;3539;47.982;12.238;2022-10-16T06:52:22;4.17;;;3.00;;
6997;SDS011;3539;47.982;12.238;2022-10-16T06:54:49;2.77;;;2.57;;
6997;SDS011;3539;47.982;12.238;2022-10-16T06:57:16;2.70;;;2.40;;
6997;SDS011;3539;47.982;12.238;2022-10-16T06:59:43;2.67;;;2.40;;
6997;SDS011;3539;47.982;12.238;2022-10-16T07:02:09;3.60;;;3.30;;
6997;SDS011;3539;47.982;12.238;2022-10-16T07:04:36;3.60;;;3.23;;
6997;SDS011;3539;47.982;12.238;2022-10-16T07:07:03;4.13;;;3.70;;
6997;SDS011;3539;47.982;12.238;2022-10-16T07:09:31;4.10;;;3.80;;
6997;SDS011;3539;47.982;12.238;2022-10-16T07:11:57;3.73;;;3.03;;
6997;SDS011;3539;47.982;12.238;2022-10-16T07:14:24;5.07;;;2.80;;
6997;SDS011;3539;47.982;12.238;2022-10-16T07:16:51;3.03;;;2.63;;
6997;SDS011;3539;47.982;12.238;2022-10-16T07:19:18;5.20;;;4.70;;
6997;SDS011;3539;47.982;12.238;2022-10-16T07:21:45;3.90;;;3.50;;
6997;SDS011;3539;47.982;12.238;2022-10-16T07:24:12;6.67;;;5.23;;
6997;SDS011;3539;47.982;12.238;2022-10-16T07:26:42;4.10;;;3.30;;
6997;SDS011;3539;47.982;12.238;2022-10-16T07:29:11;3.63;;;3.30;;
6997;SDS011;3539;47.982;12.238;2022-10-16T07:31:39;3.60;;;3.30;;
6997;SDS011;3539;47.982;12.238;2022-10-16T07:34:06;2.90;;;2.70;;
6997;SDS011;3539;47.982;12.238;2022-10-16T07:36:35;2.80;;;2.60;;
6997;SDS011;3539;47.982;12.238;2022-10-16T07:39:02;2.57;;;2.37;;
6997;SDS011;3539;47.982;12.238;2022-10-16T07:41:29;3.00;;;2.60;;
6997;SDS011;3539;47.982;12.238;2022-10-16T07:43:59;2.50;;;2.30;;
6997;SDS011;3539;47.982;12.238;2022-10-16T07:46:26;2.60;;;2.40;;
6997;SDS011;3539;47.982;12.238;2022-10-16T07:48:53;3.80;;;2.57;;
6997;SDS011;3539;47.982;12.238;2022-10-16T07:51:20;3.50;;;2.43;;
6997;SDS011;3539;47.982;12.238;2022-10-16T07:53:47;4.43;;;2.47;;
6997;SDS011;3539;47.982;12.238;2022-10-16T07:56:15;5.07;;;2.80;;
6997;SDS011;3539;47.982;12.238;2022-10-16T07:58:42;2.53;;;2.33;;
6997;SDS011;3539;47.982;12.238;2022-10-16T08:01:11;2.80;;;2.60;;
6997;SDS011;3539;47.982;12.238;2022-10-16T08:03:41;3.73;;;3.20;;
6997;SDS011;3539;47.982;12.238;2022-10-16T08:06:08;3.83;;;2.67;;
6997;SDS011;3539;47.982;12.238;2022-10-16T08:08:35;3.03;;;2.83;;
6997;SDS011;3539;47.982;12.238;2022-10-16T08:11:02;4.57;;;3.30;;
6997;SDS011;3539;47.982;12.238;2022-10-16T08:13:29;3.90;;;3.07;;
6997;SDS011;3539;47.982;12.238;2022-10-16T08:15:56;3.20;;;2.90;;
6997;SDS011;3539;47.982;12.238;2022-10-16T08:18:24;2.83;;;2.60;;
6997;SDS011;3539;47.982;12.238;2022-10-16T08:20:54;3.57;;;3.10;;
6997;SDS011;3539;47.982;12.238;2022-10-16T08:23:21;2.80;;;2.50;;
6997;SDS011;3539;47.982;12.238;2022-10-16T08:25:48;3.07;;;2.77;;
6997;SDS011;3539;47.982;12.238;2022-10-16T08:28:15;2.87;;;2.50;;
6997;SDS011;3539;47.982;12.238;2022-10-16T08:30:42;2.60;;;2.40;;
6997;SDS011;3539;47.982;12.238;2022-10-16T08:33:08;2.77;;;2.57;;
6997;SDS011;3539;47.982;12.238;2022-10-16T08:35:37;3.20;;;2.80;;
6997;SDS011;3539;47.982;12.238;2022-10-16T08:38:03;2.60;;;2.40;;
6997;SDS011;3539;47.982;12.238;2022-10-16T08:40:31;3.20;;;2.67;;
6997;SDS011;3539;47.982;12.238;2022-10-16T08:43:04;3.63;;;2.30;;
6997;SDS011;3539;47.982;12.238;2022-10-16T08:45:43;3.03;;;2.60;;
6997;SDS011;3539;47.982;12.238;2022-10-16T08:48:21;3.00;;;2.70;;
6997;SDS011;3539;47.982;12.238;2022-10-16T08:50:52;5.90;;;2.60;;
6997;SDS011;3539;47.982;12.238;2022-10-16T08:53:20;4.60;;;3.00;;
6997;SDS011;3539;47.982;12.238;2022-10-16T08:55:50;3.40;;;2.73;;
6997;SDS011;3539;47.982;12.238;2022-10-16T08:58:18;4.90;;;2.87;;
6997;SDS011;3539;47.982;12.238;2022-10-16T09:00:47;3.10;;;2.80;;
6997;SDS011;3539;47.982;12.238;2022-10-16T09:03:23;3.40;;;3.03;;
6997;SDS011;3539;47.982;12.238;2022-10-16T09:06:00;4.73;;;2.83;;
6997;SDS011;3539;47.982;12.238;2022-10-16T09:08:36;3.60;;;2.50;;
6997;SDS011;3539;47.982;12.238;2022-10-16T09:11:11;3.43;;;2.90;;
6997;SDS011;3539;47.982;12.238;2022-10-16T09:13:43;3.80;;;2.97;;
6997;SDS011;3539;47.982;12.238;2022-10-16T09:16:16;3.17;;;2.80;;
6997;SDS011;3539;47.982;12.238;2022-10-16T09:18:48;3.00;;;2.80;;
6997;SDS011;3539;47.982;12.238;2022-10-16T09:21:21;3.30;;;3.00;;
6997;SDS011;3539;47.982;12.238;2022-10-16T09:23:50;2.87;;;2.57;;
6997;SDS011;3539;47.982;12.238;2022-10-16T09:26:16;3.80;;;2.93;;
6997;SDS011;3539;47.982;12.238;2022-10-16T09:28:47;3.33;;;2.70;;
6997;SDS011;3539;47.982;12.238;2022-10-16T09:31:15;2.83;;;2.57;;
6997;SDS011;3539;47.982;12.238;2022-10-16T09:33:43;5.10;;;2.90;;
6997;SDS011;3539;47.982;12.238;2022-10-16T09:36:13;3.00;;;2.70;;
6997;SDS011;3539;47.982;12.238;2022-10-16T09:38:42;3.70;;;2.43;;
6997;SDS011;3539;47.982;12.238;2022-10-16T09:41:14;3.53;;;2.33;;
6997;SDS011;3539;47.982;12.238;2022-10-16T09:43:48;2.83;;;2.53;;
6997;SDS011;3539;47.982;12.238;2022-10-16T09:46:24;3.70;;;2.53;;
6997;SDS011;3539;47.982;12.238;2022-10-16T09:48:53;3.30;;;2.50;;
6997;SDS011;3539;47.982;12.238;2022-10-16T09:51:22;2.80;;;2.50;;
6997;SDS011;3539;47.982;12.238;2022-10-16T09:53:55;2.33;;;2.03;;
6997;SDS011;3539;47.982;12.238;2022-10-16T09:56:25;4.03;;;2.10;;
6997;SDS011;3539;47.982;12.238;2022-10-16T09:58:52;2.50;;;2.20;;
6997;SDS011;3539;47.982;12.238;2022-10-16T10:01:21;3.03;;;2.20;;
6997;SDS011;3539;47.982;12.238;2022-10-16T10:03:50;3.50;;;1.97;;
6997;SDS011;3539;47.982;12.238;2022-10-16T10:06:24;2.30;;;2.10;;
6997;SDS011;3539;47.982;12.238;2022-10-16T10:09:04;2.70;;;2.10;;
6997;SDS011;3539;47.982;12.238;2022-10-16T10:11:42;4.70;;;2.30;;
6997;SDS011;3539;47.982;12.238;2022-10-16T10:14:14;2.67;;;2.27;;
6997;SDS011;3539;47.982;12.238;2022-10-16T10:16:44;2.70;;;2.20;;
6997;SDS011;3539;47.982;12.238;2022-10-16T10:19:13;2.93;;;2.40;;
6997;SDS011;3539;47.982;12.238;2022-10-16T10:21:41;2.83;;;2.20;;
6997;SDS011;3539;47.982;12.238;2022-10-16T10:24:11;2.33;;;2.13;;
6997;SDS011;3539;47.982;12.238;2022-10-16T10:26:38;2.40;;;2.17;;
6997;SDS011;3539;47.982;12.238;2022-10-16T10:29:12;2.30;;;2.10;;
6997;SDS011;3539;47.982;12.238;2022-10-16T10:31:44;2.67;;;2.10;;
6997;SDS011;3539;47.982;12.238;2022-10-16T10:34:32;2.30;;;2.10;;
6997;SDS011;3539;47.982;12.238;2022-10-16T10:37:08;2.73;;;2.53;;
6997;SDS011;3539;47.982;12.238;2022-10-16T10:39:42;3.70;;;2.73;;
6997;SDS011;3539;47.982;12.238;2022-10-16T10:42:15;4.43;;;2.27;;
6997;SDS011;3539;47.982;12.238;2022-10-16T10:44:59;2.23;;;2.03;;
6997;SDS011;3539;47.982;12.238;2022-10-16T10:47:36;1.93;;;1.83;;
6997;SDS011;3539;47.982;12.238;2022-10-16T10:50:12;3.30;;;2.20;;
6997;SDS011;3539;47.982;12.238;2022-10-16T10:52:42;3.00;;;2.20;;
6997;SDS011;3539;47.982;12.238;2022-10-16T10:55:20;2.77;;;2.20;;
6997;SDS011;3539;47.982;12.238;2022-10-16T10:57:56;2.47;;;2.13;;
6997;SDS011;3539;47.982;12.238;2022-10-16T11:00:33;2.33;;;2.13;;
6997;SDS011;3539;47.982;12.238;2022-10-16T11:03:08;3.00;;;2.60;;
6997;SDS011;3539;47.982;12.238;2022-10-16T11:05:40;2.33;;;2.00;;
6997;SDS011;3539;47.982;12.238;2022-10-16T11:08:10;3.00;;;2.40;;
6997;SDS011;3539;47.982;12.238;2022-10-16T11:10:44;2.20;;;2.00;;
6997;SDS011;3539;47.982;12.238;2022-10-16T11:13:16;2.23;;;1.90;;
6997;SDS011;3539;47.982;12.238;2022-10-16T11:15:48;5.63;;;2.67;;
6997;SDS011;3539;47.982;12.238;2022-10-16T11:18:19;2.67;;;2.27;;
6997;SDS011;3539;47.982;12.238;2022-10-16T11:20:49;3.57;;;1.83;;
6997;SDS011;3539;47.982;12.238;2022-10-16T11:23:18;3.20;;;2.07;;
6997;SDS011;3539;47.982;12.238;2022-10-16T11:28:51;2.53;;;2.13;;
6997;SDS011;3539;47.982;12.238;2022-10-16T11:31:22;2.27;;;2.07;;
6997;SDS011;3539;47.982;12.238;2022-10-16T11:33:52;2.17;;;1.97;;
6997;SDS011;3539;47.982;12.238;2022-10-16T11:36:24;2.20;;;2.00;;
6997;SDS011;3539;47.982;12.238;2022-10-16T11:38:55;3.03;;;1.90;;
6997;SDS011;3539;47.982;12.238;2022-10-16T11:41:29;2.17;;;1.98;;
6997;SDS011;3539;47.982;12.238;2022-10-16T11:44:15;2.20;;;2.00;;
6997;SDS011;3539;47.982;12.238;2022-10-16T11:47:06;2.53;;;1.85;;
6997;SDS011;3539;47.982;12.238;2022-10-16T11:49:38;4.45;;;1.92;;
6997;SDS011;3539;47.982;12.238;2022-10-16T11:52:07;3.20;;;1.77;;
6997;SDS011;3539;47.982;12.238;2022-10-16T11:54:39;2.20;;;1.83;;
6997;SDS011;3539;47.982;12.238;2022-10-16T11:57:12;2.13;;;1.67;;
6997;SDS011;3539;47.982;12.238;2022-10-16T11:59:42;3.53;;;1.88;;
6997;SDS011;3539;47.982;12.238;2022-10-16T12:05:07;1.80;;;1.63;;
6997;SDS011;3539;47.982;12.238;2022-10-16T12:07:41;2.05;;;1.85;;
6997;SDS011;3539;47.982;12.238;2022-10-16T12:10:18;5.63;;;1.90;;
6997;SDS011;3539;47.982;12.238;2022-10-16T12:12:48;1.60;;;1.50;;
6997;SDS011;3539;47.982;12.238;2022-10-16T12:15:20;2.13;;;1.92;;
6997;SDS011;3539;47.982;12.238;2022-10-16T12:17:48;3.55;;;1.90;;
6997;SDS011;3539;47.982;12.238;2022-10-16T12:20:20;1.90;;;1.70;;
6997;SDS011;3539;47.982;12.238;2022-10-16T12:22:51;1.90;;;1.70;;
6997;SDS011;3539;47.982;12.238;2022-10-16T12:39:29;2.00;;;1.80;;
6997;SDS011;3539;47.982;12.238;2022-10-16T12:42:02;1.85;;;1.58;;
6997;SDS011;3539;47.982;12.238;2022-10-16T12:44:33;3.92;;;1.70;;
6997;SDS011;3539;47.982;12.238;2022-10-16T12:47:01;2.13;;;1.58;;
6997;SDS011;3539;47.982;12.238;2022-10-16T12:49:31;1.45;;;1.30;;
6997;SDS011;3539;47.982;12.238;2022-10-16T12:52:02;1.48;;;1.38;;
6997;SDS011;3539;47.982;12.238;2022-10-16T12:54:31;0.98;;;0.90;;
6997;SDS011;3539;47.982;12.238;2022-10-16T12:57:08;1.35;;;1.25;;
6997;SDS011;3539;47.982;12.238;2022-10-16T12:59:45;1.20;;;1.10;;
6997;SDS011;3539;47.982;12.238;2022-10-16T13:02:21;1.60;;;1.15;;
6997;SDS011;3539;47.982;12.238;2022-10-16T13:05:14;1.10;;;1.02;;
6997;SDS011;3539;47.982;12.238;2022-10-16T13:07:51;1.50;;;1.17;;
6997;SDS011;3539;47.982;12.238;2022-10-16T13:10:25;1.45;;;1.15;;
6997;SDS011;3539;47.982;12.238;2022-10-16T13:13:07;1.13;;;1.02;;
6997;SDS011;3539;47.982;12.238;2022-10-16T13:15:57;0.90;;;0.90;;
6997;SDS011;3539;47.982;12.238;2022-10-16T13:18:29;1.17;;;1.02;;
6997;SDS011;3539;47.982;12.238;2022-10-16T13:21:07;1.17;;;1.00;;
6997;SDS011;3539;47.982;12.238;2022-10-16T13:23:42;2.83;;;0.90;;
6997;SDS011;3539;47.982;12.238;2022-10-16T13:26:17;1.08;;;0.98;;
6997;SDS011;3539;47.982;12.238;2022-10-16T13:28:49;1.10;;;0.93;;
6997;SDS011;3539;47.982;12.238;2022-10-16T13:31:17;0.95;;;0.95;;
6997;SDS011;3539;47.982;12.238;2022-10-16T13:33:46;1.08;;;0.93;;
6997;SDS011;3539;47.982;12.238;2022-10-16T13:36:18;1.77;;;1.02;;
6997;SDS011;3539;47.982;12.238;2022-10-16T13:38:46;2.80;;;1.10;;
6997;SDS011;3539;47.982;12.238;2022-10-16T13:41:14;2.67;;;1.00;;
6997;SDS011;3539;47.982;12.238;2022-10-16T13:43:44;1.25;;;1.00;;
6997;SDS011;3539;47.982;12.238;2022-10-16T13:46:14;1.20;;;1.00;;
6997;SDS011;3539;47.982;12.238;2022-10-16T13:48:41;1.00;;;1.00;;
6997;SDS011;3539;47.982;12.238;2022-10-16T13:51:11;1.23;;;1.10;;
6997;SDS011;3539;47.982;12.238;2022-10-16T13:53:39;1.05;;;0.90;;
6997;SDS011;3539;47.982;12.238;2022-10-16T13:56:07;1.20;;;1.10;;
6997;SDS011;3539;47.982;12.238;2022-10-16T13:58:36;1.02;;;1.00;;
6997;SDS011;3539;47.982;12.238;2022-10-16T14:01:05;1.63;;;1.08;;
6997;SDS011;3539;47.982;12.238;2022-10-16T14:03:40;0.90;;;0.90;;
6997;SDS011;3539;47.982;12.238;2022-10-16T14:06:11;1.20;;;1.00;;
6997;SDS011;3539;47.982;12.238;2022-10-16T14:08:41;1.10;;;1.00;;
6997;SDS011;3539;47.982;12.238;2022-10-16T14:11:09;1.25;;;1.00;;
6997;SDS011;3539;47.982;12.238;2022-10-16T14:13:36;1.52;;;1.20;;
6997;SDS011;3539;47.982;12.238;2022-10-16T14:16:07;1.87;;;1.30;;
6997;SDS011;3539;47.982;12.238;2022-10-16T14:18:36;2.33;;;1.10;;
6997;SDS011;3539;47.982;12.238;2022-10-16T14:21:04;1.43;;;1.00;;
6997;SDS011;3539;47.982;12.238;2022-10-16T14:23:34;1.20;;;1.10;;
6997;SDS011;3539;47.982;12.238;2022-10-16T14:26:06;1.70;;;1.00;;
6997;SDS011;3539;47.982;12.238;2022-10-16T14:28:39;1.10;;;1.00;;
6997;SDS011;3539;47.982;12.238;2022-10-16T14:31:22;0.90;;;0.90;;
6997;SDS011;3539;47.982;12.238;2022-10-16T14:33:54;1.20;;;1.10;;
6997;SDS011;3539;47.982;12.238;2022-10-16T14:36:20;1.20;;;1.10;;
6997;SDS011;3539;47.982;12.238;2022-10-16T14:38:49;1.30;;;1.20;;
6997;SDS011;3539;47.982;12.238;2022-10-16T14:41:20;0.83;;;0.83;;
6997;SDS011;3539;47.982;12.238;2022-10-16T14:43:49;1.27;;;1.10;;
6997;SDS011;3539;47.982;12.238;2022-10-16T14:46:21;1.30;;;1.07;;
6997;SDS011;3539;47.982;12.238;2022-10-16T14:48:57;1.20;;;1.10;;
6997;SDS011;3539;47.982;12.238;2022-10-16T14:51:26;1.20;;;1.10;;
6997;SDS011;3539;47.982;12.238;2022-10-16T14:53:53;1.20;;;1.10;;
6997;SDS011;3539;47.982;12.238;2022-10-16T14:56:21;0.90;;;0.90;;
6997;SDS011;3539;47.982;12.238;2022-10-16T14:58:49;2.87;;;1.13;;
6997;SDS011;3539;47.982;12.238;2022-10-16T15:01:17;1.00;;;1.00;;
6997;SDS011;3539;47.982;12.238;2022-10-16T15:03:45;1.23;;;1.13;;
6997;SDS011;3539;47.982;12.238;2022-10-16T15:06:12;1.13;;;1.03;;
6997;SDS011;3539;47.982;12.238;2022-10-16T15:08:39;1.07;;;0.97;;
6997;SDS011;3539;47.982;12.238;2022-10-16T15:11:07;1.10;;;1.00;;
6997;SDS011;3539;47.982;12.238;2022-10-16T15:13:36;1.77;;;1.10;;
6997;SDS011;3539;47.982;12.238;2022-10-16T15:16:03;1.30;;;1.20;;
6997;SDS011;3539;47.982;12.238;2022-10-16T15:18:30;1.63;;;1.30;;
6997;SDS011;3539;47.982;12.238;2022-10-16T15:20:58;1.50;;;1.40;;
6997;SDS011;3539;47.982;12.238;2022-10-16T15:23:25;1.40;;;1.30;;
6997;SDS011;3539;47.982;12.238;2022-10-16T15:25:52;1.40;;;1.30;;
6997;SDS011;3539;47.982;12.238;2022-10-16T15:28:20;2.43;;;1.70;;
6997;SDS011;3539;47.982;12.238;2022-10-16T15:30:48;1.57;;;1.47;;
6997;SDS011;3539;47.982;12.238;2022-10-16T15:33:16;1.70;;;1.47;;